Time;durP1;ratioP1;P1;durP2;ratioP2;P2;SDS_P1;SDS_P2;PMS_P1;PMS_P2;Temp;Humidity;BMP_temperature;BMP_pressure;BME280_temperature;BME280_humidity;BME280_pressure;Samples;Min_cycle;Max_cycle;Signal;HPM_P1;HPM_P2
2022/04/11 00:01:17;;;;;;;4.55;2.35;;;;;;;6.98;51.37;100261.88;4490459;31;33609;-82
2022/04/11 00:03:45;;;;;;;2.58;1.45;;;;;;;7.17;50.83;100266.72;4490175;31;33663;-82
2022/04/11 00:06:13;;;;;;;4.20;2.22;;;;;;;7.10;51.11;100264.25;4481039;31;34375;-82
2022/04/11 00:08:40;;;;;;;3.95;1.75;;;;;;;6.95;51.52;100264.59;4476398;31;33405;-82
2022/04/11 00:11:08;;;;;;;2.45;1.73;;;;;;;6.86;51.73;100266.50;4476526;31;32906;-82
2022/04/11 00:13:36;;;;;;;3.15;1.58;;;;;;;7.04;51.28;100261.78;4477665;31;33324;-82
2022/04/11 00:16:03;;;;;;;3.35;1.58;;;;;;;7.12;51.00;100263.34;4476695;31;34323;-82
2022/04/11 00:18:31;;;;;;;1.75;1.40;;;;;;;6.97;51.28;100276.78;4476314;31;33296;-82
2022/04/11 00:20:59;;;;;;;2.83;1.85;;;;;;;6.55;52.54;100282.03;4476799;31;34575;-83
2022/04/11 00:23:27;;;;;;;3.55;1.65;;;;;;;6.61;52.61;100281.03;4479317;31;35409;-83
2022/04/11 00:25:55;;;;;;;2.42;1.83;;;;;;;6.59;52.69;100281.06;4490896;31;33589;-83
2022/04/11 00:28:22;;;;;;;3.22;2.28;;;;;;;6.57;52.66;100274.13;4490244;31;34703;-83
2022/04/11 00:30:50;;;;;;;2.92;1.67;;;;;;;6.58;52.46;100281.94;4475406;31;33905;-83
2022/04/11 00:33:18;;;;;;;2.47;1.65;;;;;;;6.60;52.31;100280.19;4479009;31;33717;-83
2022/04/11 00:35:46;;;;;;;2.47;1.92;;;;;;;6.38;53.31;100284.97;4478331;31;32578;-83
2022/04/11 00:38:14;;;;;;;3.53;2.00;;;;;;;6.37;53.26;100288.50;4465673;31;32453;-83
2022/04/11 00:40:41;;;;;;;2.92;1.92;;;;;;;6.26;53.67;100282.56;4479105;31;33440;-82
2022/04/11 00:43:09;;;;;;;2.65;1.60;;;;;;;6.46;53.17;100283.94;4488993;31;33403;-83
2022/04/11 00:45:38;;;;;;;2.50;1.70;;;;;;;6.41;53.05;100295.41;4489632;31;34492;-83
2022/04/11 00:48:06;;;;;;;2.87;2.00;;;;;;;6.26;53.45;100286.94;4492347;31;33611;-83
2022/04/11 00:50:39;;;;;;;3.15;1.98;;;;;;;6.24;53.40;100292.22;4489817;31;34375;-82
2022/04/11 00:53:07;;;;;;;3.83;1.87;;;;;;;6.04;53.94;100300.44;4487838;31;34153;-82
2022/04/11 00:55:34;;;;;;;3.15;2.17;;;;;;;6.01;54.09;100302.25;4491984;31;34186;-82
2022/04/11 00:58:02;;;;;;;4.43;2.00;;;;;;;5.95;54.29;100299.75;4478196;31;32498;-83
2022/04/11 01:00:30;;;;;;;3.35;2.17;;;;;;;6.25;53.40;100296.56;4475588;31;34803;-82
2022/04/11 01:02:57;;;;;;;1.67;1.35;;;;;;;6.11;53.70;100302.06;4489482;31;33060;-84
2022/04/11 01:05:25;;;;;;;2.65;1.58;;;;;;;6.14;53.61;100309.03;4478141;31;33774;-83
2022/04/11 01:07:53;;;;;;;2.50;1.73;;;;;;;6.02;54.07;100306.59;4490529;31;33749;-83
2022/04/11 01:10:20;;;;;;;2.15;1.55;;;;;;;6.01;53.92;100304.87;4476150;31;33451;-83
2022/04/11 01:12:48;;;;;;;3.65;2.08;;;;;;;5.97;54.12;100300.56;4491789;31;34413;-83
2022/04/11 01:15:16;;;;;;;2.72;1.92;;;;;;;6.11;53.78;100303.81;4491411;31;33536;-83
2022/04/11 01:17:44;;;;;;;2.22;1.77;;;;;;;6.12;53.74;100302.91;4490381;31;35990;-83
2022/04/11 01:20:18;;;;;;;2.65;1.73;;;;;;;5.67;54.88;100297.53;4477737;31;34048;-83
2022/04/11 01:22:46;;;;;;;3.53;2.10;;;;;;;5.42;56.03;100301.44;4479280;31;33813;-82
2022/04/11 01:25:16;;;;;;;2.42;1.65;;;;;;;5.48;55.59;100306.56;4481037;31;33615;-82
2022/04/11 01:27:44;;;;;;;3.90;2.08;;;;;;;5.67;55.11;100308.00;4478277;31;32606;-82
2022/04/11 01:30:15;;;;;;;3.53;1.80;;;;;;;5.69;55.28;100318.47;4478424;31;33919;-83
2022/04/11 01:32:43;;;;;;;3.60;1.95;;;;;;;5.68;55.21;100317.59;4493581;31;33985;-82
2022/04/11 01:35:18;;;;;;;2.40;2.12;;;;;;;5.67;55.24;100315.00;4479127;31;32609;-82
2022/04/11 01:37:46;;;;;;;1.70;1.60;;;;;;;5.62;55.32;100318.56;4491114;31;33657;-82
2022/04/11 01:40:14;;;;;;;3.20;1.98;;;;;;;5.58;55.45;100323.88;4479804;31;33247;-82
2022/04/11 01:42:43;;;;;;;3.03;2.12;;;;;;;5.82;54.67;100327.88;4491423;31;33680;-82
2022/04/11 01:45:13;;;;;;;1.58;1.27;;;;;;;5.86;54.61;100327.78;4479017;31;33179;-82
2022/04/11 01:47:41;;;;;;;3.08;1.80;;;;;;;5.69;54.92;100332.41;4480291;31;32868;-82
2022/04/11 01:50:10;;;;;;;4.72;2.22;;;;;;;5.67;54.97;100338.59;4465390;31;33440;-84
2022/04/11 01:52:37;;;;;;;3.62;1.50;;;;;;;5.63;55.29;100340.38;4478964;31;33076;-83
2022/04/11 01:55:05;;;;;;;3.47;1.98;;;;;;;5.51;55.45;100340.59;4479411;31;33160;-82
2022/04/11 01:57:48;;;;;;;3.10;1.85;;;;;;;5.67;54.96;100336.84;4495462;31;34422;-83
2022/04/11 02:00:16;;;;;;;4.12;2.03;;;;;;;5.49;55.38;100337.97;4480819;31;33476;-82
2022/04/11 02:02:44;;;;;;;3.17;2.08;;;;;;;5.51;55.35;100335.34;4478268;31;33538;-82
2022/04/11 02:05:12;;;;;;;5.00;2.20;;;;;;;5.46;55.45;100342.37;4478304;31;33672;-83
2022/04/11 02:07:40;;;;;;;3.47;2.20;;;;;;;5.55;55.26;100342.25;4479078;31;33719;-82
2022/04/11 02:10:08;;;;;;;5.10;2.40;;;;;;;5.69;54.81;100340.28;4491817;31;33788;-82
2022/04/11 02:12:36;;;;;;;4.57;2.22;;;;;;;5.58;55.09;100337.84;4467756;31;32691;-82
2022/04/11 02:15:04;;;;;;;2.53;1.95;;;;;;;5.64;55.07;100336.88;4490900;31;33556;-82
2022/04/11 02:17:32;;;;;;;6.30;2.67;;;;;;;5.65;54.75;100343.88;4491602;31;33545;-82
2022/04/11 02:20:00;;;;;;;5.32;2.15;;;;;;;5.62;55.22;100351.75;4481997;31;33497;-82
2022/04/11 02:22:42;;;;;;;6.00;2.15;;;;;;;5.65;55.35;100343.88;4470121;31;34401;-82
2022/04/11 02:25:11;;;;;;;2.83;2.55;;;;;;;5.52;55.20;100343.16;4492946;31;33749;-82
2022/04/11 02:27:38;;;;;;;4.82;2.42;;;;;;;5.34;55.75;100353.91;4477604;31;34086;-82
2022/04/11 02:30:07;;;;;;;2.70;2.12;;;;;;;5.27;55.87;100350.50;4478441;31;33950;-83
2022/04/11 02:32:35;;;;;;;3.37;2.17;;;;;;;5.45;55.83;100361.59;4478083;31;33919;-82
2022/04/11 02:35:03;;;;;;;2.35;1.87;;;;;;;5.25;56.39;100360.13;4465292;31;33115;-82
2022/04/11 02:37:31;;;;;;;3.60;1.95;;;;;;;5.28;56.73;100353.97;4478075;31;34533;-83
2022/04/11 02:40:01;;;;;;;3.05;2.55;;;;;;;5.01;57.75;100356.06;4480384;31;33875;-82
2022/04/11 02:42:30;;;;;;;2.78;2.22;;;;;;;5.17;57.32;100348.87;4478233;31;33757;-82
2022/04/11 02:44:58;;;;;;;2.80;2.08;;;;;;;4.69;59.07;100363.41;4480408;31;32975;-82
2022/04/11 02:47:27;;;;;;;3.15;2.25;;;;;;;4.94;58.44;100361.38;4490669;31;33572;-82
2022/04/11 02:49:55;;;;;;;6.40;2.80;;;;;;;5.13;58.13;100355.06;4490815;31;33551;-82
2022/04/11 02:52:25;;;;;;;3.00;2.05;;;;;;;5.27;57.48;100358.34;4476620;32;34222;-82
2022/04/11 02:54:52;;;;;;;4.65;1.90;;;;;;;5.34;57.00;100360.00;4485230;31;33244;-82
2022/04/11 02:57:20;;;;;;;3.58;2.17;;;;;;;5.21;57.24;100363.66;4490146;31;33660;-83
2022/04/11 02:59:47;;;;;;;7.07;2.65;;;;;;;5.18;57.51;100373.31;4475192;31;32615;-82
2022/04/11 03:02:15;;;;;;;3.78;2.22;;;;;;;5.15;57.53;100371.59;4490254;31;33876;-82
2022/04/11 03:04:43;;;;;;;3.62;2.08;;;;;;;5.01;57.92;100370.91;4466956;31;34295;-82
2022/04/11 03:07:12;;;;;;;2.42;1.87;;;;;;;5.19;57.56;100365.44;4476817;31;33153;-82
2022/04/11 03:09:39;;;;;;;5.20;2.45;;;;;;;5.05;57.75;100369.97;4490199;31;33233;-82
2022/04/11 03:12:08;;;;;;;5.00;2.40;;;;;;;5.10;58.00;100376.03;4477792;31;34089;-82
2022/04/11 03:14:35;;;;;;;5.95;2.17;;;;;;;5.19;57.66;100373.28;4490782;31;34327;-83
2022/04/11 03:17:04;;;;;;;2.87;2.05;;;;;;;5.11;58.02;100375.13;4491644;31;33913;-83
2022/04/11 03:19:31;;;;;;;3.80;2.50;;;;;;;5.33;57.46;100373.97;4465803;31;34553;-83
2022/04/11 03:22:00;;;;;;;5.65;2.50;;;;;;;5.31;57.51;100369.63;4478930;31;33709;-82
2022/04/11 03:24:28;;;;;;;4.37;2.12;;;;;;;5.49;56.81;100374.62;4479828;31;34164;-82
2022/04/11 03:26:56;;;;;;;3.40;2.28;;;;;;;5.31;57.21;100373.13;4489943;31;34525;-82
2022/04/11 03:29:23;;;;;;;3.05;2.15;;;;;;;5.61;56.42;100381.47;4478332;31;33410;-82
2022/04/11 03:31:51;;;;;;;3.05;2.03;;;;;;;5.34;56.81;100378.31;4478357;31;34070;-83
2022/04/11 03:34:19;;;;;;;6.28;2.53;;;;;;;5.35;57.02;100387.03;4475274;31;33359;-82
2022/04/11 03:36:47;;;;;;;4.97;2.50;;;;;;;5.63;56.20;100388.41;4477945;31;33467;-84
2022/04/11 03:39:15;;;;;;;3.22;2.35;;;;;;;5.76;55.87;100388.25;4476279;31;32890;-83
2022/04/11 03:41:43;;;;;;;2.80;2.10;;;;;;;5.70;55.72;100386.59;4492191;31;34418;-83
2022/04/11 03:44:11;;;;;;;5.40;2.10;;;;;;;5.69;55.95;100397.91;4464524;31;32669;-83
2022/04/11 03:46:40;;;;;;;3.85;2.20;;;;;;;5.41;56.71;100389.56;4488937;31;33871;-82
2022/04/11 03:49:09;;;;;;;5.05;2.72;;;;;;;5.50;56.41;100397.31;4479607;31;34648;-83
2022/04/11 03:51:37;;;;;;;4.18;2.12;;;;;;;5.43;56.24;100400.91;4465363;31;33759;-83
2022/04/11 03:54:04;;;;;;;3.85;2.85;;;;;;;5.21;56.96;100400.31;4490306;31;33199;-83
2022/04/11 03:56:33;;;;;;;4.95;2.60;;;;;;;4.87;57.84;100411.16;4479786;31;33580;-83
2022/04/11 03:59:02;;;;;;;7.07;2.10;;;;;;;4.98;57.66;100407.56;4478575;31;34509;-82
2022/04/11 04:01:30;;;;;;;6.18;3.05;;;;;;;5.19;57.23;100409.94;4477605;31;33457;-83
2022/04/11 04:03:58;;;;;;;3.87;2.28;;;;;;;5.19;57.27;100417.81;4478425;31;33895;-82
2022/04/11 04:06:26;;;;;;;4.20;2.22;;;;;;;5.23;57.11;100406.41;4491036;31;34574;-83
2022/04/11 04:08:54;;;;;;;5.53;2.10;;;;;;;5.23;56.98;100414.25;4478867;31;33742;-83
2022/04/11 04:11:23;;;;;;;6.57;2.58;;;;;;;5.17;57.34;100416.94;4493270;31;33800;-83
2022/04/11 04:13:52;;;;;;;4.53;3.05;;;;;;;5.28;56.97;100420.31;4488889;31;33542;-83
2022/04/11 04:16:20;;;;;;;9.05;4.30;;;;;;;5.33;56.74;100420.25;4478925;31;33527;-83
2022/04/11 04:18:49;;;;;;;4.22;2.92;;;;;;;5.37;56.58;100422.81;4478679;31;33926;-83
2022/04/11 04:21:19;;;;;;;5.35;2.20;;;;;;;5.24;56.86;100418.59;4489292;31;33736;-84
2022/04/11 04:23:47;;;;;;;5.32;2.90;;;;;;;5.18;57.32;100426.53;4471027;31;33944;-83
2022/04/11 04:26:16;;;;;;;7.65;2.58;;;;;;;5.34;56.70;100430.69;4491800;31;34732;-83
2022/04/11 04:28:45;;;;;;;5.72;2.72;;;;;;;5.45;56.54;100429.69;4491450;31;33545;-83
2022/04/11 04:31:12;;;;;;;6.72;2.83;;;;;;;5.36;57.03;100431.56;4478558;31;32450;-83
2022/04/11 04:33:41;;;;;;;6.25;2.25;;;;;;;5.54;56.78;100432.19;4490681;31;33385;-83
2022/04/11 04:36:09;;;;;;;6.72;2.42;;;;;;;5.62;56.53;100433.84;4475563;31;33699;-83
2022/04/11 04:38:36;;;;;;;3.75;2.70;;;;;;;5.51;57.09;100435.75;4490246;31;34447;-83
2022/04/11 04:41:04;;;;;;;3.08;2.20;;;;;;;5.63;57.04;100434.69;4492082;31;33797;-82
2022/04/11 04:43:33;;;;;;;5.18;2.50;;;;;;;5.63;57.46;100439.94;4476773;31;33980;-82
2022/04/11 04:46:01;;;;;;;3.95;2.47;;;;;;;5.94;56.67;100445.66;4473662;32;33537;-83
2022/04/11 04:48:29;;;;;;;4.50;2.20;;;;;;;5.98;56.48;100439.50;4468330;31;33362;-83
2022/04/11 04:50:57;;;;;;;6.45;2.00;;;;;;;6.10;56.17;100441.91;4481609;31;33682;-83
2022/04/11 04:53:26;;;;;;;2.12;1.80;;;;;;;6.26;55.85;100449.53;4490729;31;33714;-83
2022/04/11 04:55:56;;;;;;;3.40;2.03;;;;;;;6.22;56.14;100451.38;4479745;31;32546;-83
2022/04/11 04:58:24;;;;;;;2.25;1.98;;;;;;;5.96;56.54;100443.00;4475321;31;34236;-83
2022/04/11 05:00:52;;;;;;;4.72;2.17;;;;;;;6.47;55.51;100457.06;4477664;31;34313;-83
2022/04/11 05:03:20;;;;;;;5.25;2.35;;;;;;;6.53;55.04;100445.59;4492454;31;33274;-83
2022/04/11 05:05:48;;;;;;;3.37;2.12;;;;;;;6.39;55.80;100449.31;4479423;31;34231;-83
2022/04/11 05:08:16;;;;;;;4.05;2.50;;;;;;;6.53;55.70;100448.22;4477003;31;33484;-83
2022/04/11 05:10:44;;;;;;;5.12;2.10;;;;;;;6.59;55.46;100451.59;4491235;31;34649;-82
2022/04/11 05:13:12;;;;;;;8.55;2.58;;;;;;;6.62;55.27;100450.69;4476634;31;33178;-83
2022/04/11 05:15:42;;;;;;;7.18;2.20;;;;;;;6.51;56.32;100461.38;4489505;31;33094;-83
2022/04/11 05:18:11;;;;;;;4.55;2.45;;;;;;;6.65;55.93;100466.41;4490853;31;33921;-82
2022/04/11 05:20:40;;;;;;;4.82;2.50;;;;;;;6.70;55.16;100464.56;4479835;31;34104;-82
2022/04/11 05:23:08;;;;;;;3.60;2.10;;;;;;;6.83;55.35;100459.94;4480686;31;32306;-84
2022/04/11 05:25:36;;;;;;;4.22;2.17;;;;;;;6.80;55.42;100460.87;4482438;31;33932;-84
2022/04/11 05:28:04;;;;;;;5.00;2.08;;;;;;;6.70;55.30;100459.31;4465147;31;32587;-83
2022/04/11 05:30:35;;;;;;;3.95;2.17;;;;;;;7.03;54.60;100455.22;4465804;31;33600;-82
2022/04/11 05:33:04;;;;;;;2.83;2.27;;;;;;;6.76;55.20;100453.94;4478008;31;33937;-83
2022/04/11 05:35:32;;;;;;;3.60;1.92;;;;;;;7.17;53.94;100449.72;4479538;31;33108;-83
2022/04/11 05:38:00;;;;;;;2.97;2.15;;;;;;;7.08;54.05;100460.37;4454872;31;34470;-83
2022/04/11 05:40:28;;;;;;;5.87;2.53;;;;;;;7.37;52.54;100450.16;4478458;31;33975;-84
2022/04/11 05:42:55;;;;;;;4.00;1.80;;;;;;;7.48;53.11;100451.72;4477610;31;34376;-83
2022/04/11 05:45:24;;;;;;;4.70;1.95;;;;;;;7.39;52.93;100460.63;4495244;31;33634;-83
2022/04/11 05:47:54;;;;;;;5.62;1.90;;;;;;;7.23;53.20;100457.47;4478745;31;34728;-83
2022/04/11 05:50:21;;;;;;;4.93;1.73;;;;;;;7.48;53.05;100454.34;4479331;31;33864;-83
2022/04/11 05:52:49;;;;;;;6.45;1.55;;;;;;;7.98;50.94;100457.66;4490898;31;33158;-83
2022/04/11 05:55:18;;;;;;;4.07;1.92;;;;;;;8.04;51.56;100462.75;4477218;31;32390;-83
2022/04/11 05:57:45;;;;;;;4.30;1.75;;;;;;;8.08;51.24;100460.03;4480504;31;34707;-83
2022/04/11 06:00:14;;;;;;;2.45;1.65;;;;;;;8.06;50.91;100458.31;4463574;31;33906;-83
2022/04/11 06:02:42;;;;;;;3.25;1.50;;;;;;;8.22;51.05;100459.72;4476959;31;32485;-83
2022/04/11 06:05:11;;;;;;;3.28;1.58;;;;;;;8.42;49.83;100465.38;4492584;31;34169;-83
2022/04/11 06:07:40;;;;;;;3.33;1.62;;;;;;;8.53;49.42;100456.38;4479994;31;33706;-84
2022/04/11 06:10:08;;;;;;;4.65;1.73;;;;;;;8.58;48.18;100447.44;4465889;31;33812;-83
2022/04/11 06:12:37;;;;;;;2.33;1.92;;;;;;;8.36;50.25;100452.38;4477486;31;34075;-83
2022/04/11 06:15:05;;;;;;;3.67;1.37;;;;;;;8.59;49.45;100448.31;4478318;31;32693;-84
2022/04/11 06:17:33;;;;;;;7.45;2.40;;;;;;;8.55;49.45;100450.16;4479719;31;33180;-83
2022/04/11 06:20:02;;;;;;;4.15;1.58;;;;;;;8.69;49.10;100445.41;4463586;31;33588;-84
2022/04/11 06:22:30;;;;;;;4.78;2.10;;;;;;;8.86;48.54;100446.72;4478372;31;32728;-84
2022/04/11 06:25:01;;;;;;;5.55;1.90;;;;;;;8.97;47.82;100442.94;4479716;31;33453;-83
2022/04/11 06:27:29;;;;;;;2.55;1.62;;;;;;;9.03;48.87;100438.41;4489249;31;34070;-84
2022/04/11 06:30:05;;;;;;;2.62;2.03;;;;;;;9.04;48.38;100442.75;4491545;31;33081;-83
2022/04/11 06:32:34;;;;;;;3.22;2.25;;;;;;;9.22;48.33;100442.25;4466659;31;32631;-83
2022/04/11 06:35:02;;;;;;;3.12;1.87;;;;;;;9.63;47.16;100440.19;4476822;31;32724;-83
2022/04/11 06:37:30;;;;;;;2.35;1.60;;;;;;;9.60;46.02;100435.03;4477562;31;33103;-84
2022/04/11 06:39:58;;;;;;;2.28;1.50;;;;;;;9.42;46.97;100446.97;4479068;31;32564;-83
2022/04/11 06:42:26;;;;;;;4.37;1.98;;;;;;;9.30;48.43;100445.50;4478519;31;33624;-84
2022/04/11 06:44:54;;;;;;;5.25;1.90;;;;;;;9.59;46.32;100449.09;4478673;31;33498;-83
2022/04/11 06:47:25;;;;;;;3.30;1.52;;;;;;;9.67;47.75;100440.03;4479567;31;34325;-84
2022/04/11 06:49:53;;;;;;;3.83;1.70;;;;;;;9.79;48.01;100452.03;4477065;31;32807;-84
2022/04/11 06:52:21;;;;;;;1.75;1.37;;;;;;;9.85;46.28;100445.69;4489132;31;34352;-83
2022/04/11 06:54:49;;;;;;;3.95;1.62;;;;;;;9.88;46.32;100456.16;4485547;31;33885;-84
2022/04/11 06:57:16;;;;;;;4.32;2.10;;;;;;;9.99;46.23;100454.91;4476936;31;33604;-84
2022/04/11 06:59:44;;;;;;;3.95;2.25;;;;;;;9.93;45.73;100455.09;4477395;31;33551;-84
2022/04/11 07:02:11;;;;;;;2.30;2.05;;;;;;;10.01;46.72;100460.97;4478062;31;34060;-84
2022/04/11 07:04:39;;;;;;;4.25;2.17;;;;;;;10.18;46.33;100456.97;4489403;31;34007;-84
2022/04/11 07:07:07;;;;;;;3.75;1.87;;;;;;;10.38;45.00;100462.50;4490343;31;33708;-83
2022/04/11 07:09:36;;;;;;;2.72;2.00;;;;;;;10.25;45.94;100461.16;4477869;31;33264;-82
2022/04/11 07:12:04;;;;;;;2.75;2.10;;;;;;;9.88;46.31;100466.72;4477647;31;33150;-82
2022/04/11 07:14:32;;;;;;;1.92;1.62;;;;;;;10.04;46.52;100467.97;4488572;31;33113;-82
2022/04/11 07:17:06;;;;;;;4.32;1.87;;;;;;;10.13;47.46;100472.94;4477574;31;32914;-82
2022/04/11 07:19:33;;;;;;;3.05;1.95;;;;;;;10.27;46.50;100459.34;4476888;31;33817;-82
2022/04/11 07:22:01;;;;;;;2.37;1.62;;;;;;;10.52;47.30;100470.84;4489004;31;34412;-82
2022/04/11 07:24:28;;;;;;;2.85;1.75;;;;;;;10.72;45.15;100464.03;4479062;31;33439;-82
2022/04/11 07:26:56;;;;;;;3.30;2.12;;;;;;;10.48;45.96;100461.28;4478245;31;33471;-82
2022/04/11 07:29:23;;;;;;;2.80;1.80;;;;;;;10.45;45.49;100463.19;4476603;31;32664;-82
2022/04/11 07:31:51;;;;;;;3.50;2.12;;;;;;;10.46;46.19;100465.78;4492935;31;34265;-82
2022/04/11 07:34:18;;;;;;;2.62;1.98;;;;;;;10.64;46.60;100464.31;4478147;31;33939;-82
2022/04/11 07:36:46;;;;;;;2.12;1.65;;;;;;;10.59;45.75;100455.69;4492358;31;33306;-82
2022/04/11 07:39:14;;;;;;;2.50;1.50;;;;;;;10.71;45.44;100455.25;4489144;31;34339;-82
2022/04/11 07:41:42;;;;;;;4.47;1.50;;;;;;;10.77;45.82;100457.66;4471731;31;32958;-82
2022/04/11 07:44:09;;;;;;;1.98;1.42;;;;;;;11.27;44.33;100449.75;4478561;31;33252;-82
2022/04/11 07:46:37;;;;;;;4.53;1.70;;;;;;;11.20;45.47;100464.13;4479803;31;33472;-82
2022/04/11 07:49:05;;;;;;;2.95;2.03;;;;;;;11.52;43.65;100459.44;4491754;31;34716;-82
2022/04/11 07:51:32;;;;;;;4.15;1.65;;;;;;;11.67;42.54;100447.41;4491817;31;32933;-82
2022/04/11 07:54:00;;;;;;;4.65;1.77;;;;;;;11.42;43.39;100456.28;4477953;31;33861;-82
2022/04/11 07:56:29;;;;;;;6.03;2.05;;;;;;;11.35;44.15;100457.44;4464959;31;32524;-82
2022/04/11 07:58:56;;;;;;;5.00;1.58;;;;;;;11.35;44.15;100452.12;4479048;31;34220;-82
2022/04/11 08:01:24;;;;;;;2.50;1.58;;;;;;;11.40;44.43;100452.84;4478794;31;32955;-83
2022/04/11 08:03:52;;;;;;;3.80;1.30;;;;;;;11.89;42.42;100445.72;4490879;31;33987;-82
2022/04/11 08:06:20;;;;;;;2.72;1.45;;;;;;;11.71;43.63;100449.03;4480369;31;33588;-83
2022/04/11 08:08:47;;;;;;;2.87;1.52;;;;;;;11.74;42.77;100459.50;4475020;31;34474;-82
2022/04/11 08:11:19;;;;;;;4.35;1.83;;;;;;;11.76;42.17;100458.50;4476739;31;32487;-82
2022/04/11 08:13:50;;;;;;;4.80;1.70;;;;;;;11.96;42.58;100454.25;4477662;31;32804;-82
2022/04/11 08:16:18;;;;;;;2.67;1.60;;;;;;;11.89;42.38;100458.94;4494565;31;35205;-82
2022/04/11 08:18:46;;;;;;;2.33;1.48;;;;;;;11.60;42.72;100459.16;4476702;31;34715;-82
2022/04/11 08:21:14;;;;;;;4.40;1.85;;;;;;;11.90;42.95;100450.06;4476820;32;33618;-82
2022/04/11 08:23:42;;;;;;;4.40;1.98;;;;;;;11.68;42.09;100455.31;4472172;31;33558;-83
2022/04/11 08:26:09;;;;;;;5.43;1.30;;;;;;;11.51;41.78;100461.22;4488805;31;35303;-82
2022/04/11 08:28:37;;;;;;;4.35;1.83;;;;;;;11.56;42.18;100455.75;4487465;31;33715;-82
2022/04/11 08:31:05;;;;;;;3.40;1.70;;;;;;;11.45;41.88;100457.94;4491934;31;33242;-82
2022/04/11 08:33:33;;;;;;;3.10;2.12;;;;;;;11.67;41.85;100452.72;4489596;31;33656;-82
2022/04/11 08:36:00;;;;;;;2.75;1.58;;;;;;;11.67;41.62;100458.84;4475370;31;33878;-82
2022/04/11 08:38:28;;;;;;;3.17;1.52;;;;;;;11.90;41.21;100455.38;4478222;31;34020;-82
2022/04/11 08:40:56;;;;;;;2.97;1.55;;;;;;;11.80;41.47;100446.87;4476371;31;33678;-82
2022/04/11 08:43:24;;;;;;;2.97;1.60;;;;;;;11.74;41.72;100444.50;4491310;31;34138;-82
2022/04/11 08:45:53;;;;;;;2.17;1.60;;;;;;;12.07;41.96;100446.78;4491202;31;34596;-83
2022/04/11 08:48:22;;;;;;;3.12;1.85;;;;;;;12.49;40.47;100449.50;4488567;31;33780;-82
2022/04/11 08:50:50;;;;;;;5.65;1.85;;;;;;;12.31;40.63;100442.28;4472156;31;34136;-82
2022/04/11 08:53:21;;;;;;;4.35;2.00;;;;;;;12.44;41.15;100437.37;4488014;31;33512;-83
2022/04/11 08:55:49;;;;;;;2.55;1.65;;;;;;;12.91;41.04;100430.03;4471600;31;33757;-82
2022/04/11 08:58:18;;;;;;;3.53;2.70;;;;;;;13.13;39.75;100439.72;4489607;31;34198;-83
2022/04/11 09:00:46;;;;;;;3.80;2.60;;;;;;;13.36;41.12;100430.78;4489304;31;33238;-82
2022/04/11 09:03:13;;;;;;;3.97;1.75;;;;;;;13.51;39.54;100428.28;4488090;31;33257;-83
2022/04/11 09:05:41;;;;;;;4.75;2.20;;;;;;;13.57;38.36;100432.44;4490197;31;34910;-83
2022/04/11 09:08:08;;;;;;;3.72;1.85;;;;;;;13.83;37.45;100420.63;4477994;31;34299;-83
2022/04/11 09:10:37;;;;;;;2.67;1.62;;;;;;;13.71;38.26;100432.66;4477640;31;33883;-83
2022/04/11 09:13:07;;;;;;;2.85;1.83;;;;;;;13.39;37.27;100430.59;4490473;31;33908;-82
2022/04/11 09:15:44;;;;;;;2.20;1.67;;;;;;;13.45;39.50;100433.87;4475765;31;33611;-82
2022/04/11 09:18:12;;;;;;;5.57;1.62;;;;;;;13.66;37.06;100421.41;4477679;31;34716;-83
2022/04/11 09:20:41;;;;;;;2.25;1.48;;;;;;;13.27;37.48;100426.72;4474435;31;32506;-82
2022/04/11 09:23:19;;;;;;;2.12;1.35;;;;;;;12.96;38.67;100427.19;4491599;31;33876;-83
2022/04/11 09:25:47;;;;;;;5.85;1.90;;;;;;;13.25;39.61;100434.78;4491035;31;33743;-82
2022/04/11 09:28:15;;;;;;;2.25;1.95;;;;;;;13.79;37.20;100421.69;4475852;31;34238;-84
2022/04/11 09:30:43;;;;;;;4.28;2.28;;;;;;;13.47;38.20;100418.72;4473328;31;33631;-83
2022/04/11 09:33:12;;;;;;;2.75;1.70;;;;;;;13.89;37.30;100420.31;4474516;31;34693;-83
2022/04/11 09:35:44;;;;;;;3.20;2.05;;;;;;;13.59;37.90;100427.94;4489722;31;33478;-82
2022/04/11 09:38:12;;;;;;;1.75;1.62;;;;;;;13.48;36.99;100431.09;4477875;31;34100;-83
2022/04/11 09:40:41;;;;;;;4.12;2.10;;;;;;;13.66;37.32;100417.88;4492921;31;33346;-83
2022/04/11 09:43:09;;;;;;;3.78;1.80;;;;;;;13.84;36.93;100419.69;4478689;31;33643;-83
2022/04/11 09:45:40;;;;;;;3.90;2.10;;;;;;;13.89;38.03;100415.00;4490776;31;33816;-83
2022/04/11 09:48:09;;;;;;;4.32;1.90;;;;;;;13.87;39.96;100416.87;4479803;31;32554;-82
2022/04/11 09:50:36;;;;;;;2.72;1.80;;;;;;;14.40;35.14;100407.25;4479048;31;34357;-83
2022/04/11 09:53:11;;;;;;;2.78;1.83;;;;;;;13.92;38.33;100419.31;4480804;31;34010;-83
2022/04/11 09:55:43;;;;;;;2.67;1.83;;;;;;;13.81;36.88;100420.69;4479155;31;33919;-83
2022/04/11 09:58:11;;;;;;;3.08;2.00;;;;;;;13.69;38.87;100423.06;4478114;31;32693;-83
2022/04/11 10:00:42;;;;;;;5.45;1.87;;;;;;;13.72;36.31;100417.59;4491233;31;33301;-83
2022/04/11 10:03:09;;;;;;;6.25;2.15;;;;;;;13.83;35.78;100428.59;4480886;31;32774;-83
2022/04/11 10:05:39;;;;;;;5.10;2.37;;;;;;;14.11;36.51;100429.94;4476967;31;32990;-83
2022/04/11 10:08:08;;;;;;;3.08;1.55;;;;;;;13.64;36.46;100430.37;4466588;31;33507;-83
2022/04/11 10:10:41;;;;;;;3.92;2.12;;;;;;;13.20;37.45;100427.91;4479126;31;32931;-83
2022/04/11 10:13:15;;;;;;;2.10;1.95;;;;;;;13.45;36.84;100415.28;4479185;31;33358;-83
2022/04/11 10:15:46;;;;;;;3.53;1.73;;;;;;;13.50;37.37;100418.59;4478549;31;34720;-82
2022/04/11 10:18:16;;;;;;;5.53;2.00;;;;;;;13.61;36.93;100419.87;4465748;31;34277;-83
2022/04/11 10:20:47;;;;;;;1.85;1.50;;;;;;;13.22;38.16;100426.94;4491660;31;33679;-83
2022/04/11 10:23:47;;;;;;;6.05;2.58;;;;;;;13.21;33.62;100416.37;4490320;31;33788;-82
2022/04/11 10:26:17;;;;;;;4.62;2.58;;;;;;;12.70;35.19;100425.66;4474105;31;33790;-83
2022/04/11 10:28:52;;;;;;;3.30;1.98;;;;;;;12.88;35.08;100430.19;4491700;31;33760;-83
2022/04/11 10:31:20;;;;;;;2.62;1.73;;;;;;;12.97;35.57;100428.94;4491164;31;33259;-83
2022/04/11 10:33:55;;;;;;;2.25;1.35;;;;;;;13.28;35.63;100424.00;4492774;31;33403;-83
2022/04/11 10:36:34;;;;;;;3.17;1.37;;;;;;;13.68;35.95;100416.91;4490310;31;33786;-83
2022/04/11 10:39:14;;;;;;;1.27;0.85;;;;;;;14.14;33.77;100424.44;4479246;31;34690;-84
2022/04/11 10:41:54;;;;;;;0.98;0.88;;;;;;;14.81;30.15;100416.69;4492751;31;33215;-83
2022/04/11 10:44:38;;;;;;;3.45;0.70;;;;;;;15.22;29.91;100410.97;4493500;31;33883;-83
2022/04/11 10:47:09;;;;;;;1.45;1.20;;;;;;;15.43;29.04;100403.66;4490214;31;33329;-83
2022/04/11 10:49:49;;;;;;;1.87;1.25;;;;;;;15.31;28.72;100409.63;4476735;31;32495;-83
2022/04/11 10:52:35;;;;;;;2.75;1.30;;;;;;;14.85;29.78;100420.03;4488063;31;33705;-83
2022/04/11 10:55:19;;;;;;;1.37;1.15;;;;;;;14.47;28.45;100422.78;4490778;31;33489;-82
2022/04/11 10:57:53;;;;;;;1.75;1.37;;;;;;;13.87;29.77;100422.19;4480947;31;33691;-83
2022/04/11 11:00:33;;;;;;;0.95;0.90;;;;;;;13.67;31.12;100409.84;4477766;31;33642;-83
2022/04/11 11:03:09;;;;;;;2.35;1.98;;;;;;;13.90;31.82;100403.44;4464510;31;33364;-83
2022/04/11 11:05:45;;;;;;;3.35;1.33;;;;;;;13.88;32.04;100415.94;4489669;31;34010;-83
2022/04/11 11:08:13;;;;;;;1.30;1.05;;;;;;;13.91;32.01;100422.88;4477975;31;32976;-83
2022/04/11 11:10:57;;;;;;;29.70;3.83;;;;;;;14.08;30.33;100418.50;4493476;31;33886;-83
2022/04/11 11:13:34;;;;;;;3.03;1.73;;;;;;;14.43;29.23;100415.03;4489891;31;33601;-83
2022/04/11 11:16:08;;;;;;;4.57;1.37;;;;;;;14.78;29.32;100400.03;4487611;31;32823;-83
2022/04/11 11:18:48;;;;;;;1.65;1.17;;;;;;;15.17;28.78;100396.22;4488273;31;33461;-83
2022/04/11 11:21:19;;;;;;;1.23;1.10;;;;;;;15.69;28.87;100393.41;4477249;31;33172;-83
2022/04/11 11:24:07;;;;;;;2.08;1.15;;;;;;;15.79;28.43;100395.47;4491833;31;33335;-83
2022/04/11 11:26:51;;;;;;;1.60;1.45;;;;;;;15.67;27.85;100395.31;4491693;31;33259;-83
2022/04/11 11:29:42;;;;;;;2.95;2.28;;;;;;;14.97;28.95;100390.16;4489788;31;34000;-84
2022/04/11 11:32:15;;;;;;;2.47;1.77;;;;;;;14.43;29.81;100402.66;4488439;31;33829;-83
2022/04/11 11:34:43;;;;;;;3.33;1.65;;;;;;;14.28;30.37;100392.75;4492327;31;33645;-83
2022/04/11 11:37:15;;;;;;;2.05;1.90;;;;;;;14.15;31.07;100400.50;4489403;31;33535;-83
2022/04/11 11:39:45;;;;;;;1.00;0.68;;;;;;;14.45;30.57;100389.28;4478458;31;33866;-83